Dakar International Airport

Current Flights

Departures
Number Departure To Airline
Arrivals
Number Arrival From Airline
Info
Name: Dakar International Airport
Identifier:  DKR/GOOY
Local Time:  26. Jun 02:29
City
Flights per Day
0 flights
Distance: 5,731km (3,561mi)
Punctuality
0% (0 flights per day delayed)
Delay Average: 30 minutes
Current Weather
 25 C (Humidity: 88%)
  4kt (7km/h / 4mph) from 320°
  8km (4 mi.)
 METAR GOOY 260100Z 32004KT 8000 NSC 25/23 Q1011

Current Delays

Departures
N/A
Arrivals
N/A

Destinations

Top Destinations
Airport Flights
per week
Seats
per week
  Dakar (DSS) 0 - 0 0

Airlines & Planes

Top Airlines
Airline Flights
per Day
Seats
per Day
  Ethiopian Airlines 0 5
Top Plane Types
Model Flights Seats
ATR 76-600 0.1/day - 0